createdAt,value
2023-05-22T00:01:59.445Z,12.8
2023-05-22T00:07:51.610Z,12.9
2023-05-22T00:13:27.037Z,13.1
2023-05-22T00:19:19.377Z,13.2
2023-05-22T00:25:11.175Z,13.2
2023-05-22T00:31:02.161Z,13.3
2023-05-22T00:36:53.803Z,13.3
2023-05-22T00:42:45.791Z,13.3
2023-05-22T00:48:37.380Z,13.4
2023-05-22T00:54:28.704Z,13.3
2023-05-22T01:00:19.996Z,13.3
2023-05-22T01:06:13.289Z,13.2
2023-05-22T01:12:04.693Z,13.1
2023-05-22T01:17:56.445Z,13.1
2023-05-22T01:23:48.755Z,12.9
2023-05-22T01:29:40.362Z,12.8
2023-05-22T01:35:32.149Z,12.7
2023-05-22T01:41:23.085Z,12.6
2023-05-22T01:47:15.677Z,12.5
2023-05-22T01:53:06.860Z,12.4
2023-05-22T01:58:57.890Z,12.3
2023-05-22T02:04:51.546Z,12.2
2023-05-22T02:10:43.175Z,12.1
2023-05-22T02:16:35.398Z,12
2023-05-22T02:22:11.762Z,11.9
2023-05-22T02:28:03.519Z,11.8
2023-05-22T02:33:55.597Z,11.8
2023-05-22T02:39:47.139Z,11.6
2023-05-22T02:45:39.008Z,11.6
2023-05-22T02:51:30.647Z,11.4
2023-05-22T02:57:21.996Z,11.1
2023-05-22T03:03:14.202Z,10.8
2023-05-22T03:09:05.912Z,10.6
2023-05-22T03:14:57.733Z,10.5
2023-05-22T03:20:49.883Z,10.4
2023-05-22T03:26:40.740Z,10.4
2023-05-22T03:32:32.955Z,10.3
2023-05-22T03:38:24.849Z,10.3
2023-05-22T03:44:02.541Z,10.3
2023-05-22T03:49:39.285Z,10.4
2023-05-22T03:55:32.854Z,10.4
2023-05-22T04:01:23.697Z,10.6
2023-05-22T04:07:15.866Z,10.7
2023-05-22T04:13:08.127Z,10.8
2023-05-22T04:18:59.165Z,11
2023-05-22T04:24:50.643Z,11.1
2023-05-22T04:30:42.205Z,11.3
2023-05-22T04:36:18.675Z,11.4
2023-05-22T04:41:56.567Z,11.7
2023-05-22T04:47:48.726Z,12.1
2023-05-22T04:53:40.144Z,12.8
2023-05-22T04:59:44.073Z,13.9
2023-05-22T05:05:37.726Z,15.9
2023-05-22T05:11:30.263Z,18.3
2023-05-22T05:17:22.378Z,20.7
2023-05-22T05:23:01.831Z,23.1
2023-05-22T05:28:52.685Z,25.4
2023-05-22T05:34:44.152Z,27.9
2023-05-22T05:40:20.518Z,30.6
2023-05-22T05:46:12.167Z,33.3
2023-05-22T05:52:03.203Z,36.3
2023-05-22T05:57:55.743Z,39.3
2023-05-22T06:03:49.180Z,41.8
2023-05-22T06:09:41.237Z,44.3
2023-05-22T06:15:17.045Z,45.3
2023-05-22T06:21:10.557Z,42
2023-05-22T06:27:01.957Z,38.8
2023-05-22T06:33:13.974Z,38.4
2023-05-22T06:39:06.645Z,40
2023-05-22T06:44:58.035Z,43.1
2023-05-22T06:50:50.825Z,47.1
2023-05-22T06:56:42.913Z,43
2023-05-22T07:02:35.384Z,40.1
2023-05-22T07:08:30.379Z,39.2
2023-05-22T07:14:23.072Z,39.3
2023-05-22T07:20:17.879Z,39.8
2023-05-22T07:26:10.063Z,42
2023-05-22T07:32:02.970Z,45.8
2023-05-22T07:37:55.729Z,47.4
2023-05-22T07:43:49.959Z,44.3
2023-05-22T07:49:42.537Z,45.3
2023-05-22T07:55:36.350Z,46.6
2023-05-22T08:01:28.270Z,47.1
2023-05-22T08:07:08.377Z,47
2023-05-22T08:13:25.776Z,49.3
2023-05-22T08:19:25.693Z,53.7
2023-05-22T08:25:03.615Z,55.4
2023-05-22T08:30:56.060Z,56.3
2023-05-22T08:36:48.916Z,59.4
2023-05-22T08:42:43.683Z,61.3
2023-05-22T08:48:35.055Z,62.2
2023-05-22T08:54:27.688Z,63.3
2023-05-22T09:00:26.247Z,62.4
2023-05-22T09:06:21.341Z,55.8
2023-05-22T09:12:26.371Z,48.1
2023-05-22T09:18:20.070Z,46.2
2023-05-22T09:24:25.831Z,44.2
2023-05-22T09:30:18.428Z,42.3
2023-05-22T09:36:11.833Z,40.8
2023-05-22T09:42:04.538Z,40.3
2023-05-22T09:47:59.781Z,41.5
2023-05-22T09:53:52.251Z,48
2023-05-22T10:00:01.039Z,53.9
2023-05-22T10:05:56.379Z,52.6
2023-05-22T10:11:53.805Z,46
2023-05-22T10:17:47.793Z,44.4
2023-05-22T10:23:43.740Z,44.3
2023-05-22T10:29:21.923Z,43.9
2023-05-22T10:35:15.784Z,42.6
2023-05-22T10:41:19.659Z,40.6
2023-05-22T10:47:14.634Z,38.4
2023-05-22T10:52:53.126Z,36.8
2023-05-22T10:58:46.633Z,36.1
2023-05-22T11:04:51.431Z,37
2023-05-22T11:10:45.578Z,39.1
2023-05-22T11:16:43.326Z,41.2
2023-05-22T11:22:48.664Z,44.3
2023-05-22T11:35:05.968Z,41.6
2023-05-22T11:40:43.738Z,38.3
2023-05-22T11:46:39.073Z,32.9
2023-05-22T11:52:43.896Z,29.1
2023-05-22T11:58:38.922Z,26.9
2023-05-22T12:04:38.611Z,25.3
2023-05-22T12:10:34.274Z,24.1
2023-05-22T12:16:30.429Z,23.1
2023-05-22T12:22:10.017Z,22.1
2023-05-22T12:28:07.090Z,22.1
2023-05-22T12:34:01.993Z,23.3
2023-05-22T12:39:41.104Z,24.8
2023-05-22T12:45:36.680Z,25.1
2023-05-22T12:51:19.350Z,24.9
2023-05-22T12:57:15.228Z,24.3
2023-05-22T13:03:10.727Z,24
2023-05-22T13:09:05.835Z,24.1
2023-05-22T13:14:50.253Z,24.5
2023-05-22T13:20:51.271Z,25
2023-05-22T13:26:54.136Z,25.6
2023-05-22T13:32:36.508Z,26.3
2023-05-22T13:38:34.983Z,27.3
2023-05-22T13:44:31.700Z,29.1
2023-05-22T13:50:12.040Z,32.4
2023-05-22T13:56:05.972Z,36.2
2023-05-22T14:01:45.866Z,39
2023-05-22T14:07:09.211Z,40.6
2023-05-22T14:12:46.131Z,41.3
2023-05-22T14:18:23.717Z,41.9
2023-05-22T14:24:27.188Z,41.6
2023-05-22T14:30:20.105Z,42.5
2023-05-22T14:35:58.188Z,43.3
2023-05-22T14:41:19.403Z,41.9
2023-05-22T14:47:12.502Z,39.1
2023-05-22T14:53:17.976Z,36.9
2023-05-22T14:59:10.453Z,34.4
2023-05-22T15:05:05.015Z,31.3
2023-05-22T15:11:07.220Z,29.7
2023-05-22T15:16:59.347Z,28.4
2023-05-22T15:23:04.220Z,27.3
2023-05-22T15:28:59.729Z,26.3
2023-05-22T15:34:52.558Z,25.4
2023-05-22T15:40:45.664Z,24.8
2023-05-22T15:46:50.617Z,24.2
2023-05-22T15:52:43.344Z,23.9
2023-05-22T15:58:38.524Z,23.6
2023-05-22T16:04:33.212Z,23.5
2023-05-22T16:10:10.432Z,23.6
2023-05-22T16:16:08.203Z,23.6
2023-05-22T16:22:02.766Z,23.4
2023-05-22T16:28:09.607Z,23
2023-05-22T16:34:03.571Z,22.3
2023-05-22T16:39:40.534Z,21.6
2023-05-22T16:45:34.723Z,20.8
2023-05-22T16:51:28.135Z,20.3
2023-05-22T16:57:19.939Z,19.7
2023-05-22T17:03:13.415Z,19.2
2023-05-22T17:14:44.425Z,18.1
2023-05-22T17:20:39.676Z,17.6
2023-05-22T17:32:06.523Z,16.5
2023-05-22T17:37:59.105Z,16
2023-05-22T17:44:07.547Z,15.6
2023-05-22T17:50:00.373Z,15.2
2023-05-22T17:55:53.894Z,14.8
2023-05-22T18:01:31.172Z,14.6
2023-05-22T18:06:56.461Z,14.3
2023-05-22T18:13:04.576Z,14.1
2023-05-22T18:18:58.147Z,13.9
2023-05-22T18:24:49.899Z,13.8
2023-05-22T18:30:11.690Z,13.6
2023-05-22T18:36:05.564Z,13.6
2023-05-22T18:41:57.450Z,13.5
2023-05-22T18:47:50.056Z,13.6
2023-05-22T18:53:43.175Z,13.6
2023-05-22T18:59:35.353Z,13.7
2023-05-22T19:05:13.821Z,13.8
2023-05-22T19:10:23.722Z,13.8
2023-05-22T19:15:45.663Z,13.8
2023-05-22T19:21:07.537Z,13.7
2023-05-22T19:26:13.503Z,13.4
2023-05-22T19:31:54.853Z,13.3
2023-05-22T19:37:47.689Z,13.1
2023-05-22T19:43:40.761Z,12.9
2023-05-22T19:49:18.541Z,12.8
2023-05-22T19:55:11.405Z,12.8
2023-05-22T20:01:04.999Z,12.7
2023-05-22T20:06:27.410Z,12.6
2023-05-22T20:12:04.366Z,12.6
2023-05-22T20:17:41.971Z,12.5
2023-05-22T20:23:34.771Z,12.4
2023-05-22T20:29:27.619Z,12.3
2023-05-22T20:35:20.878Z,12.3
2023-05-22T20:41:13.530Z,12.2
2023-05-22T20:47:06.646Z,12.2
2023-05-22T20:52:43.397Z,12.1
2023-05-22T20:58:35.113Z,12
2023-05-22T21:04:28.223Z,11.9
2023-05-22T21:10:22.609Z,11.8
2023-05-22T21:16:15.283Z,11.8
2023-05-22T21:22:08.473Z,11.6
2023-05-22T21:28:00.977Z,11.5
2023-05-22T21:33:54.115Z,11.3
2023-05-22T21:39:46.760Z,11.2
2023-05-22T21:45:36.658Z,11.1
2023-05-22T21:51:30.814Z,11
2023-05-22T21:57:22.793Z,10.9
2023-05-22T22:03:16.232Z,10.8
2023-05-22T22:09:09.235Z,10.8
2023-05-22T22:15:01.933Z,10.7
2023-05-22T22:21:07.870Z,10.6
2023-05-22T22:26:59.844Z,10.6
2023-05-22T22:32:52.340Z,10.6
2023-05-22T22:38:45.004Z,10.5
2023-05-22T22:44:26.125Z,10.4
2023-05-22T22:50:03.381Z,10.3
2023-05-22T22:55:57.459Z,10.2
2023-05-22T23:01:49.426Z,10.1
2023-05-22T23:07:43.037Z,10
2023-05-22T23:13:36.292Z,9.9
2023-05-22T23:19:28.593Z,9.8
2023-05-22T23:25:04.983Z,9.8
2023-05-22T23:30:29.370Z,9.6
2023-05-22T23:36:05.691Z,9.6
2023-05-22T23:41:42.418Z,9.4
2023-05-22T23:47:19.416Z,9.3
2023-05-22T23:53:10.952Z,9.2
2023-05-22T23:59:03.661Z,9.1
